Hauptseite
METAR-TAF:

METAR-TAF

Flughäfen :

Militärflugplatz Nancy-Ochey

Nancy, Frankreich

Breite: 48-35N, Länge: 005-58E, Höhe: 336 m

Beobachtung

Neuester Wetterbericht von vor 29 Minuten, um 07:30 UTC
Wind 4 kt aus Nordost, variierte zwischen Nordwest und Ost
Temperatur 19°C
Luftfeuchtigkeit 78%
Luftdruck 1022 hPa
Sichtweite 10 km oder mehr
keine Wolken unter 1500 m und keine Kumulonimbus oder Gewitterwolken

METAR: LFSO 180730Z AUTO 04004KT 320V090 CAVOK 19/15 Q1022 NOSIG

Zeit: 09:59 (07:59 UTC)

Prognose

Neuester Wetterbericht von vor 4 Stunden und 27 Minuten, um 03:32 UTC
Gültige Prognose vom 18 um 03 UTC bis 19 um 03 UTC
Wind 3 kt aus Nord/Nordost
Sichtweite 10 km oder mehr
keine Wolken unter 1500 m und keine Kumulonimbus oder Gewitterwolken

TAF: LFSO 180332Z 1803/1903 02003KT CAVOK

Wetterbeobachtungen und Prognosen von mehr als 4000 Flughäfen (METAR und TAF Bericht).

Die verfügbaren Stationen werden durch gelbe und rote Markierungen auf der Karte dargestellt.

Führen Sie die Maus auf sie, um den Namen der Station zu sehen.

Darauf klicken, um die Beobachtung von Wetterbeobachtungen und Prognosen zu sehen.

Um die Karte zu ändern : klicken Sie auf den grünen Tasten mit einem schwarzen Kreuz Zum Vergrößern, auf den grünen Button mit einem Gedankenstrich zu verkleinern, oder auf die grünen Pfeile für benachbarte Karten.


METAR-TAF: